createdAt,value
2022-10-25T00:00:15.069Z,83.33
2022-10-25T00:01:16.013Z,83.38
2022-10-25T00:02:14.350Z,83.49
2022-10-25T00:03:14.551Z,83.51
2022-10-25T00:04:14.409Z,83.52
2022-10-25T00:05:14.471Z,83.48
2022-10-25T00:06:14.086Z,83.44
2022-10-25T00:07:13.885Z,83.49
2022-10-25T00:08:14.545Z,83.49
2022-10-25T00:09:14.216Z,83.51
2022-10-25T00:10:13.972Z,83.59
2022-10-25T00:11:15.001Z,83.58
2022-10-25T00:12:13.906Z,83.61
2022-10-25T00:13:15.228Z,83.65
2022-10-25T00:14:13.756Z,83.60
2022-10-25T00:15:15.062Z,83.56
2022-10-25T00:16:14.016Z,83.5
2022-10-25T00:17:13.821Z,83.44
2022-10-25T00:18:14.511Z,83.54
2022-10-25T00:19:14.019Z,83.48
2022-10-25T00:20:13.730Z,83.54
2022-10-25T00:21:14.569Z,83.53
2022-10-25T00:22:14.318Z,83.34
2022-10-25T00:23:13.855Z,83.35
2022-10-25T00:24:14.829Z,83.35
2022-10-25T00:25:15.022Z,83.44
2022-10-25T00:26:13.694Z,83.50
2022-10-25T00:27:14.217Z,83.63
2022-10-25T00:28:13.755Z,83.64
2022-10-25T00:29:14.793Z,83.61
2022-10-25T00:30:15.027Z,83.72
2022-10-25T00:31:13.567Z,83.66
2022-10-25T00:32:13.998Z,83.68
2022-10-25T00:33:13.598Z,83.61
2022-10-25T00:34:14.221Z,83.55
2022-10-25T00:35:13.639Z,83.60
2022-10-25T00:36:14.142Z,83.58
2022-10-25T00:37:13.569Z,83.66
2022-10-25T00:38:14.101Z,83.72
2022-10-25T00:39:13.600Z,83.80
2022-10-25T00:40:13.980Z,83.85
2022-10-25T00:41:13.941Z,83.79
2022-10-25T00:42:14.288Z,83.80
2022-10-25T00:43:13.708Z,83.79
2022-10-25T00:44:14.022Z,83.87
2022-10-25T00:45:13.807Z,83.78
2022-10-25T00:46:14.165Z,83.73
2022-10-25T00:47:13.650Z,83.79
2022-10-25T00:48:14.223Z,83.83
2022-10-25T00:49:13.546Z,83.88
2022-10-25T00:50:14.201Z,83.97
2022-10-25T00:51:13.780Z,84.16
2022-10-25T00:52:14.029Z,84.31
2022-10-25T00:53:13.515Z,84.24
2022-10-25T00:54:14.074Z,84.32
2022-10-25T00:55:13.794Z,84.44
2022-10-25T00:56:14.218Z,84.52
2022-10-25T00:57:13.516Z,84.58
2022-10-25T00:58:13.810Z,84.52
2022-10-25T00:59:14.111Z,84.56
2022-10-25T01:00:14.860Z,84.65
2022-10-25T01:01:14.163Z,84.60
2022-10-25T01:02:14.278Z,84.62
2022-10-25T01:03:14.004Z,84.68
2022-10-25T01:04:13.310Z,84.74
2022-10-25T01:05:13.964Z,84.66
2022-10-25T01:06:14.278Z,84.68
2022-10-25T01:07:13.795Z,84.80
2022-10-25T01:08:14.292Z,84.92
2022-10-25T01:09:14.065Z,84.92
2022-10-25T01:10:13.723Z,84.77
2022-10-25T01:11:14.392Z,84.80
2022-10-25T01:12:13.957Z,84.84
2022-10-25T01:13:14.291Z,84.82
2022-10-25T01:14:13.934Z,84.69
2022-10-25T01:15:14.616Z,84.64
2022-10-25T01:17:13.740Z,84.73
2022-10-25T01:18:14.332Z,84.77
2022-10-25T01:19:13.659Z,84.76
2022-10-25T01:20:14.292Z,84.82
2022-10-25T01:21:13.854Z,84.86
2022-10-25T01:22:14.446Z,84.82
2022-10-25T01:23:12.213Z,84.82
2022-10-25T01:24:13.770Z,84.91
2022-10-25T01:25:14.422Z,84.85
2022-10-25T01:26:14.061Z,84.94
2022-10-25T01:27:13.566Z,84.95
2022-10-25T01:28:13.967Z,84.96
2022-10-25T01:29:14.706Z,85.01
2022-10-25T01:30:22.648Z,84.89
2022-10-25T01:31:13.985Z,84.89
2022-10-25T01:32:18.478Z,84.87
2022-10-25T01:33:13.799Z,84.87
2022-10-25T01:34:14.450Z,84.82
2022-10-25T01:35:13.896Z,84.85
2022-10-25T01:36:14.856Z,84.76
2022-10-25T01:37:14.592Z,84.70
2022-10-25T01:38:14.063Z,84.68
2022-10-25T01:39:13.583Z,84.77
2022-10-25T01:40:13.986Z,84.84
2022-10-25T01:41:13.581Z,84.86
2022-10-25T01:42:14.331Z,84.85
2022-10-25T01:43:13.703Z,84.80
2022-10-25T01:44:14.203Z,84.79
2022-10-25T01:45:14.021Z,84.77
2022-10-25T01:46:13.403Z,84.76
2022-10-25T01:47:13.986Z,84.80
2022-10-25T01:48:13.356Z,84.86
2022-10-25T01:49:13.904Z,84.75
2022-10-25T01:50:14.298Z,84.61
2022-10-25T01:51:13.804Z,84.73
2022-10-25T01:52:14.131Z,84.73
2022-10-25T01:53:13.705Z,84.81
2022-10-25T01:54:14.056Z,84.88
2022-10-25T01:55:14.205Z,84.88
2022-10-25T01:56:13.354Z,84.95
2022-10-25T01:57:13.587Z,84.94
2022-10-25T01:58:13.623Z,84.85
2022-10-25T01:59:13.962Z,84.81
2022-10-25T02:00:34.152Z,84.73
2022-10-25T02:01:14.061Z,84.73
2022-10-25T02:02:13.613Z,84.68
2022-10-25T02:03:14.044Z,84.74
2022-10-25T02:04:13.736Z,84.80
2022-10-25T02:05:14.896Z,84.79
2022-10-25T02:06:14.400Z,84.76
2022-10-25T02:07:13.864Z,84.63
2022-10-25T02:08:14.274Z,84.58
2022-10-25T02:09:13.551Z,84.59
2022-10-25T02:10:14.106Z,84.58
2022-10-25T02:11:13.638Z,84.71
2022-10-25T02:12:14.095Z,84.65
2022-10-25T02:13:13.530Z,84.67
2022-10-25T02:14:13.847Z,84.67
2022-10-25T02:15:14.636Z,84.61
2022-10-25T02:16:14.121Z,84.62
2022-10-25T02:17:13.711Z,84.68
2022-10-25T02:18:14.061Z,84.65
2022-10-25T02:19:13.415Z,84.65
2022-10-25T02:20:13.999Z,84.63
2022-10-25T02:21:13.555Z,84.63
2022-10-25T02:22:13.693Z,84.38
2022-10-25T02:23:13.965Z,84.51
2022-10-25T02:24:14.312Z,84.62
2022-10-25T02:25:13.951Z,84.63
2022-10-25T02:26:14.358Z,84.63
2022-10-25T02:27:13.702Z,84.65
2022-10-25T02:28:14.029Z,84.58
2022-10-25T02:29:13.644Z,84.54
2022-10-25T02:30:14.084Z,84.56
2022-10-25T02:31:13.738Z,84.58
2022-10-25T02:32:14.545Z,84.54
2022-10-25T02:33:13.853Z,84.55
2022-10-25T02:34:42.199Z,84.60
2022-10-25T02:36:46.334Z,84.40
2022-10-25T02:37:13.825Z,84.40
2022-10-25T02:38:13.865Z,84.42
2022-10-25T02:39:14.226Z,84.34
2022-10-25T02:40:13.882Z,84.36
2022-10-25T02:41:14.295Z,84.49
2022-10-25T02:42:13.725Z,84.54
2022-10-25T02:43:14.259Z,84.51
2022-10-25T02:44:13.738Z,84.47
2022-10-25T02:45:14.682Z,84.43
2022-10-25T02:46:14.129Z,84.45
2022-10-25T02:47:13.717Z,84.44
2022-10-25T02:48:14.096Z,84.33
2022-10-25T02:49:13.511Z,84.35
2022-10-25T02:50:13.975Z,84.32
2022-10-25T02:51:14.459Z,84.36
2022-10-25T02:52:13.945Z,84.41
2022-10-25T02:53:14.451Z,84.41
2022-10-25T02:54:13.754Z,84.40
2022-10-25T02:55:14.411Z,84.44
2022-10-25T02:56:13.646Z,84.47
2022-10-25T02:57:13.990Z,84.48
2022-10-25T02:58:13.541Z,84.58
2022-10-25T02:59:13.788Z,84.68
2022-10-25T03:00:15.402Z,84.69
2022-10-25T03:01:14.351Z,84.65
2022-10-25T03:02:13.812Z,84.73
2022-10-25T03:03:14.138Z,84.69
2022-10-25T03:04:13.605Z,84.67
2022-10-25T03:05:14.104Z,84.76
2022-10-25T03:06:13.677Z,84.84
2022-10-25T03:07:14.030Z,84.89
2022-10-25T03:08:13.546Z,84.95
2022-10-25T03:09:14.051Z,84.95
2022-10-25T03:10:13.808Z,84.86
2022-10-25T03:11:14.393Z,84.88
2022-10-25T03:12:14.454Z,84.76
2022-10-25T03:13:14.204Z,84.70
2022-10-25T03:14:13.705Z,84.61
2022-10-25T03:15:14.363Z,84.57
2022-10-25T03:16:14.079Z,84.61
2022-10-25T03:17:13.773Z,84.69
2022-10-25T03:18:14.544Z,84.75
2022-10-25T03:19:14.049Z,84.72
2022-10-25T03:20:13.657Z,84.71
2022-10-25T03:21:13.987Z,84.74
2022-10-25T03:22:13.799Z,84.69
2022-10-25T03:23:14.473Z,84.73
2022-10-25T03:24:13.986Z,84.81
2022-10-25T03:25:13.526Z,84.89
2022-10-25T03:26:13.879Z,84.95
2022-10-25T03:27:14.472Z,84.96
2022-10-25T03:28:14.029Z,84.87
2022-10-25T03:29:13.739Z,84.80
2022-10-25T03:30:14.804Z,84.81
2022-10-25T03:31:14.926Z,84.54
2022-10-25T03:32:14.674Z,84.51
2022-10-25T03:33:14.128Z,84.43
2022-10-25T03:34:13.623Z,84.47
2022-10-25T03:35:14.237Z,84.48
2022-10-25T03:36:13.889Z,84.31
2022-10-25T03:37:14.490Z,84.40
2022-10-25T03:38:14.110Z,84.46
2022-10-25T03:39:13.718Z,84.41
2022-10-25T03:40:14.518Z,84.26
2022-10-25T03:41:14.055Z,84.34
2022-10-25T03:42:13.937Z,84.39
2022-10-25T03:43:15.195Z,84.36
2022-10-25T03:44:13.749Z,84.33
2022-10-25T03:45:14.577Z,84.32
2022-10-25T03:46:14.037Z,84.27
2022-10-25T03:47:18.389Z,84.23
2022-10-25T03:48:14.244Z,84.14
2022-10-25T03:49:13.958Z,84.26
2022-10-25T03:50:14.692Z,84.37
2022-10-25T03:51:14.250Z,84.40
2022-10-25T03:52:13.749Z,84.35
2022-10-25T03:53:14.347Z,84.41
2022-10-25T03:54:13.343Z,84.41
2022-10-25T03:55:14.100Z,84.41
2022-10-25T03:56:13.470Z,84.43
2022-10-25T03:57:22.822Z,84.58
2022-10-25T03:58:14.118Z,84.58
2022-10-25T03:59:27.537Z,84.47
2022-10-25T04:00:15.472Z,84.47
2022-10-25T04:01:14.356Z,84.48
2022-10-25T04:02:13.919Z,84.49
2022-10-25T04:03:14.749Z,84.46
2022-10-25T04:04:14.096Z,84.43
2022-10-25T04:05:21.869Z,84.42
2022-10-25T04:06:14.523Z,84.33
2022-10-25T04:07:13.969Z,84.37
2022-10-25T04:08:14.478Z,84.38
2022-10-25T04:09:13.988Z,84.19
2022-10-25T04:10:13.611Z,84.13
2022-10-25T04:11:14.080Z,84
2022-10-25T04:12:13.581Z,83.95
2022-10-25T04:13:14.000Z,84.04
2022-10-25T04:14:13.745Z,84.10
2022-10-25T04:15:14.675Z,84.22
2022-10-25T04:16:17.050Z,84.15
2022-10-25T04:17:13.827Z,84.10
2022-10-25T04:18:14.335Z,84.00
2022-10-25T04:19:14.114Z,84.01
2022-10-25T04:20:13.873Z,83.98
2022-10-25T04:21:14.762Z,84.04
2022-10-25T04:22:14.295Z,84.08
2022-10-25T04:23:13.920Z,83.98
2022-10-25T04:24:14.371Z,83.84
2022-10-25T04:25:14.313Z,83.76
2022-10-25T04:26:13.991Z,83.70
2022-10-25T04:27:13.418Z,83.78
2022-10-25T04:28:13.953Z,83.82
2022-10-25T04:29:15.182Z,83.84
2022-10-25T04:30:14.839Z,83.97
2022-10-25T04:31:14.778Z,83.94
2022-10-25T04:32:14.611Z,83.89
2022-10-25T04:33:36.501Z,83.77
2022-10-25T04:34:14.085Z,83.77
2022-10-25T04:35:14.041Z,83.78
2022-10-25T04:36:13.296Z,83.87
2022-10-25T04:37:13.900Z,83.97
2022-10-25T04:38:14.289Z,84.01
2022-10-25T04:39:14.050Z,84.17
2022-10-25T04:40:13.723Z,84.30
2022-10-25T04:41:14.224Z,84.37
2022-10-25T04:42:13.948Z,84.41
2022-10-25T04:43:14.420Z,84.42
2022-10-25T04:44:14.008Z,84.46
2022-10-25T04:45:14.209Z,84.49
2022-10-25T04:46:13.958Z,84.60
2022-10-25T04:47:14.651Z,84.70
2022-10-25T04:48:14.463Z,84.69
2022-10-25T04:49:14.122Z,84.71
2022-10-25T04:50:14.066Z,84.75
2022-10-25T04:51:13.678Z,84.76
2022-10-25T04:52:14.307Z,84.71
2022-10-25T04:53:14.048Z,84.69
2022-10-25T04:54:13.676Z,84.64
2022-10-25T04:55:14.626Z,84.63
2022-10-25T04:56:14.339Z,84.55
2022-10-25T04:57:14.217Z,84.53
2022-10-25T04:58:14.131Z,84.49
2022-10-25T04:59:13.794Z,84.52
2022-10-25T05:00:15.357Z,84.44
2022-10-25T05:01:14.230Z,84.29
2022-10-25T05:02:13.893Z,84.08
2022-10-25T05:03:18.353Z,84.06
2022-10-25T05:04:13.996Z,84.06
2022-10-25T05:05:13.791Z,84.15
2022-10-25T05:06:14.650Z,84.18
2022-10-25T05:07:14.470Z,84.21
2022-10-25T05:08:14.300Z,84.16
2022-10-25T05:09:13.960Z,84.09
2022-10-25T05:10:15.066Z,84.12
2022-10-25T05:11:14.524Z,84.11
2022-10-25T05:12:14.359Z,84.16
2022-10-25T05:13:13.855Z,84.07
2022-10-25T05:14:14.742Z,84.07
2022-10-25T05:15:14.870Z,84.05
2022-10-25T05:16:14.859Z,84.02
2022-10-25T05:17:14.812Z,84
2022-10-25T05:18:14.682Z,84.07
2022-10-25T05:19:14.845Z,84.22
2022-10-25T05:20:14.733Z,84.34
2022-10-25T05:21:14.531Z,84.37
2022-10-25T05:22:13.975Z,84.39
2022-10-25T05:23:14.652Z,84.46
2022-10-25T05:24:14.315Z,84.59
2022-10-25T05:25:14.313Z,84.56
2022-10-25T05:26:13.864Z,84.51
2022-10-25T05:27:14.765Z,84.56
2022-10-25T05:28:14.217Z,84.61
2022-10-25T05:29:15.452Z,84.68
2022-10-25T05:30:14.462Z,84.71
2022-10-25T05:31:15.353Z,84.80
2022-10-25T05:32:13.988Z,84.88
2022-10-25T05:33:13.759Z,84.92
2022-10-25T05:34:14.737Z,84.91
2022-10-25T05:35:14.755Z,84.91
2022-10-25T05:36:14.407Z,84.80
2022-10-25T05:37:14.197Z,84.76
2022-10-25T05:38:13.977Z,84.81
2022-10-25T05:39:14.724Z,84.77
2022-10-25T05:40:14.641Z,84.73
2022-10-25T05:41:14.360Z,84.74
2022-10-25T05:42:13.947Z,84.77
2022-10-25T05:43:14.756Z,84.84
2022-10-25T05:44:14.334Z,84.91
2022-10-25T05:45:14.842Z,84.96
2022-10-25T05:46:14.137Z,84.83
2022-10-25T05:47:13.845Z,84.72
2022-10-25T05:48:14.413Z,84.74
2022-10-25T05:49:13.973Z,84.88
2022-10-25T05:50:15.007Z,85.00
2022-10-25T05:51:38.419Z,85.06
2022-10-25T05:52:13.864Z,85.06
2022-10-25T05:53:14.778Z,85.10
2022-10-25T05:54:14.309Z,85.27
2022-10-25T05:55:14.109Z,85.35
2022-10-25T05:56:13.704Z,85.38
2022-10-25T05:57:14.298Z,85.40
2022-10-25T05:58:14.008Z,85.43
2022-10-25T05:59:13.915Z,85.57
2022-10-25T06:00:15.666Z,85.71
2022-10-25T06:01:15.345Z,85.80
2022-10-25T06:02:14.597Z,86.02
2022-10-25T06:03:15.084Z,86.00
2022-10-25T06:04:14.253Z,85.96
2022-10-25T06:05:15.068Z,86.05
2022-10-25T06:06:14.476Z,86.17
2022-10-25T06:07:14.249Z,86.16
2022-10-25T06:09:14.293Z,86.02
2022-10-25T06:10:15.801Z,85.97
2022-10-25T06:11:15.375Z,85.95
2022-10-25T06:12:14.895Z,85.88
2022-10-25T06:13:14.831Z,85.77
2022-10-25T06:14:14.264Z,85.84
2022-10-25T06:15:14.405Z,85.84
2022-10-25T06:16:13.865Z,85.76
2022-10-25T06:17:15.150Z,85.88
2022-10-25T06:18:13.768Z,85.94
2022-10-25T06:19:14.298Z,85.86
2022-10-25T06:20:14.211Z,85.79
2022-10-25T06:21:13.806Z,85.82
2022-10-25T06:22:14.484Z,85.72
2022-10-25T06:23:16.145Z,85.61
2022-10-25T06:24:14.126Z,85.58
2022-10-25T06:25:13.956Z,85.60
2022-10-25T06:26:14.507Z,85.54
2022-10-25T06:27:14.110Z,85.57
2022-10-25T06:28:13.479Z,85.60
2022-10-25T06:29:13.960Z,85.54
2022-10-25T06:30:20.115Z,85.52
2022-10-25T06:31:13.788Z,85.54
2022-10-25T06:32:14.557Z,85.61
2022-10-25T06:33:14.152Z,85.60
2022-10-25T06:34:13.544Z,85.58
2022-10-25T06:35:14.077Z,85.51
2022-10-25T06:36:13.647Z,85.52
2022-10-25T06:37:14.686Z,85.50
2022-10-25T06:38:14.049Z,85.48
2022-10-25T06:39:13.664Z,85.72
2022-10-25T06:40:14.423Z,85.80
2022-10-25T06:41:13.779Z,85.78
2022-10-25T06:42:14.689Z,85.69
2022-10-25T06:43:14.420Z,85.65
2022-10-25T06:44:13.835Z,85.81
2022-10-25T06:45:14.843Z,85.98
2022-10-25T06:46:14.396Z,86.01
2022-10-25T06:47:22.601Z,86.17
2022-10-25T06:48:14.160Z,86.17
2022-10-25T06:49:13.682Z,86.27
2022-10-25T06:50:14.268Z,86.42
2022-10-25T06:51:13.743Z,86.42
2022-10-25T06:52:14.471Z,86.38
2022-10-25T06:53:13.930Z,86.40
2022-10-25T06:54:14.829Z,86.43
2022-10-25T06:55:14.605Z,86.48
2022-10-25T06:57:13.809Z,86.54
2022-10-25T06:58:14.460Z,86.56
2022-10-25T06:59:14.393Z,86.54
2022-10-25T07:00:15.007Z,86.51
2022-10-25T07:01:13.730Z,86.44
2022-10-25T07:02:42.615Z,86.25
2022-10-25T07:03:14.353Z,86.25
2022-10-25T07:04:14.155Z,86.12
2022-10-25T07:05:13.785Z,86.05
2022-10-25T07:06:14.546Z,86.04
2022-10-25T07:07:14.162Z,86.09
2022-10-25T07:08:13.583Z,86.10
2022-10-25T07:09:14.263Z,86.06
2022-10-25T07:10:13.944Z,86.07
2022-10-25T07:11:14.667Z,85.99
2022-10-25T07:12:17.775Z,85.98
2022-10-25T07:13:14.506Z,86.04
2022-10-25T07:14:14.375Z,86.02
2022-10-25T07:15:14.575Z,85.92
2022-10-25T07:16:14.317Z,85.86
2022-10-25T07:17:14.283Z,85.76
2022-10-25T07:18:13.901Z,85.68
2022-10-25T07:19:14.410Z,85.67
2022-10-25T07:20:14.152Z,85.54
2022-10-25T07:21:13.489Z,85.39
2022-10-25T07:22:13.945Z,85.35
2022-10-25T07:23:14.818Z,85.30
2022-10-25T07:24:14.570Z,85.27
2022-10-25T07:25:14.586Z,85.18
2022-10-25T07:26:14.381Z,85.16
2022-10-25T07:27:13.978Z,85.19
2022-10-25T07:28:14.639Z,85.18
2022-10-25T07:29:13.901Z,85.23
2022-10-25T07:30:14.777Z,85.20
2022-10-25T07:31:14.574Z,85.32
2022-10-25T07:32:14.323Z,85.36
2022-10-25T07:33:13.867Z,85.44
2022-10-25T07:34:14.652Z,85.38
2022-10-25T07:35:14.254Z,85.28
2022-10-25T07:36:16.418Z,85.31
2022-10-25T07:37:13.889Z,85.36
2022-10-25T07:38:14.567Z,85.44
2022-10-25T07:39:13.944Z,85.47
2022-10-25T07:40:14.764Z,85.53
2022-10-25T07:41:14.508Z,85.58
2022-10-25T07:42:14.329Z,85.52
2022-10-25T07:43:13.985Z,85.65
2022-10-25T07:45:16.274Z,85.44
2022-10-25T07:46:14.502Z,85.35
2022-10-25T07:47:13.925Z,85.20
2022-10-25T07:48:14.350Z,85.12
2022-10-25T07:49:13.778Z,85.04
2022-10-25T07:50:14.621Z,84.93
2022-10-25T07:51:14.087Z,84.79
2022-10-25T07:52:13.448Z,84.73
2022-10-25T07:53:13.907Z,84.79
2022-10-25T07:54:14.267Z,84.72
2022-10-25T07:55:13.789Z,84.68
2022-10-25T07:56:17.509Z,84.61
2022-10-25T07:57:14.085Z,84.55
2022-10-25T07:58:13.371Z,84.62
2022-10-25T07:59:13.744Z,84.73
2022-10-25T08:00:15.528Z,84.75
2022-10-25T08:01:14.325Z,84.83
2022-10-25T08:02:13.683Z,84.88
2022-10-25T08:03:14.413Z,84.90
2022-10-25T08:04:14.269Z,84.86
2022-10-25T08:05:14.032Z,84.82
2022-10-25T08:06:13.611Z,84.63
2022-10-25T08:07:14.249Z,84.57
2022-10-25T08:08:13.690Z,84.73
2022-10-25T08:09:37.740Z,84.76
2022-10-25T08:10:13.980Z,84.76
2022-10-25T08:11:13.918Z,84.75
2022-10-25T08:12:17.045Z,84.72
2022-10-25T08:13:13.890Z,84.82
2022-10-25T08:14:14.700Z,84.88
2022-10-25T08:15:14.546Z,85.37
2022-10-25T08:16:14.249Z,84.75
2022-10-25T08:17:13.475Z,84.53
2022-10-25T08:18:13.963Z,84.32
2022-10-25T08:19:14.616Z,84.65
2022-10-25T08:20:14.258Z,84.70
2022-10-25T08:21:13.682Z,84.73
2022-10-25T08:22:14.638Z,84.55
2022-10-25T08:23:14.371Z,84.78
2022-10-25T08:24:14.184Z,84.65
2022-10-25T08:25:14.096Z,84.63
2022-10-25T08:26:13.895Z,84.43
2022-10-25T08:27:14.604Z,84.59
2022-10-25T08:28:14.272Z,84.55
2022-10-25T08:29:13.978Z,84.81
2022-10-25T08:30:15.398Z,84.76
2022-10-25T08:31:14.053Z,84.69
2022-10-25T08:32:13.649Z,84.64
2022-10-25T08:33:16.946Z,84.48
2022-10-25T08:34:14.443Z,84.38
2022-10-25T08:35:14.518Z,84.26
2022-10-25T08:36:14.147Z,84.22
2022-10-25T08:37:13.866Z,84.30
2022-10-25T08:38:14.711Z,84.12
2022-10-25T08:39:14.485Z,84.20
2022-10-25T08:40:14.391Z,84.28
2022-10-25T08:41:13.950Z,84.22
2022-10-25T08:42:14.771Z,84.18
2022-10-25T08:43:14.598Z,83.98
2022-10-25T08:44:14.106Z,83.77
2022-10-25T08:45:13.986Z,83.66
2022-10-25T08:46:13.826Z,83.72
2022-10-25T08:47:14.360Z,83.66
2022-10-25T08:48:14.081Z,83.66
2022-10-25T08:49:21.892Z,83.49
2022-10-25T08:50:14.846Z,83.49
2022-10-25T08:51:14.929Z,83.08
2022-10-25T08:53:13.833Z,81.93
2022-10-25T08:54:14.235Z,80.20
2022-10-25T08:55:14.006Z,79.82
2022-10-25T08:56:22.260Z,80.40
2022-10-25T08:57:21.281Z,80.84
2022-10-25T08:58:14.274Z,80.84
2022-10-25T08:59:14.123Z,81.13
2022-10-25T09:00:15.130Z,80.93
2022-10-25T09:01:21.741Z,80.94
2022-10-25T09:02:14.626Z,80.92
2022-10-25T09:03:25.107Z,81.04
2022-10-25T09:04:13.856Z,81.04
2022-10-25T09:05:14.897Z,80.87
2022-10-25T09:06:14.565Z,80.73
2022-10-25T09:07:15.087Z,80.50
2022-10-25T09:08:13.840Z,80.35
2022-10-25T09:09:14.890Z,80.33
2022-10-25T09:10:14.827Z,80.35
2022-10-25T09:11:14.647Z,80.27
2022-10-25T09:12:14.084Z,79.94
2022-10-25T09:13:15.962Z,80.03
2022-10-25T09:14:14.703Z,80.10
2022-10-25T09:15:14.559Z,79.73
2022-10-25T09:16:13.981Z,79.79
2022-10-25T09:17:14.795Z,79.62
2022-10-25T09:18:14.700Z,79.54
2022-10-25T09:19:14.371Z,79.37
2022-10-25T09:20:14.140Z,79.52
2022-10-25T09:21:23.022Z,79.33
2022-10-25T09:22:14.060Z,79.33
2022-10-25T09:23:14.092Z,79.26
2022-10-25T09:24:13.712Z,79.38
2022-10-25T09:25:14.930Z,79.48
2022-10-25T09:26:14.637Z,79.41
2022-10-25T09:27:14.156Z,79.31
2022-10-25T09:28:13.647Z,79.05
2022-10-25T09:29:14.483Z,78.97
2022-10-25T09:30:14.734Z,79.11
2022-10-25T09:31:14.155Z,79.19
2022-10-25T09:32:13.698Z,79.02
2022-10-25T09:33:14.597Z,78.87
2022-10-25T09:34:14.416Z,78.01
2022-10-25T09:35:14.196Z,76.95
2022-10-25T09:36:13.650Z,77.16
2022-10-25T09:37:14.428Z,76.72
2022-10-25T09:38:14.503Z,60
2022-10-25T09:39:21.214Z,75.08
2022-10-25T09:40:14.238Z,75.08
2022-10-25T09:41:13.706Z,75.38
2022-10-25T09:42:14.301Z,76.05
2022-10-25T09:43:13.831Z,76.83
2022-10-25T09:44:14.333Z,77.26
2022-10-25T09:45:15.722Z,77.30
2022-10-25T09:46:14.492Z,77.54
2022-10-25T09:47:14.203Z,77.55
2022-10-25T09:48:13.919Z,77.62
2022-10-25T09:49:14.837Z,77.50
2022-10-25T09:50:14.705Z,77.66
2022-10-25T09:51:14.668Z,77.92
2022-10-25T09:52:16.029Z,77.69
2022-10-25T09:53:13.591Z,77.36
2022-10-25T09:54:13.787Z,76.91
2022-10-25T09:55:14.584Z,76.82
2022-10-25T09:56:14.298Z,77.13
2022-10-25T09:57:14.031Z,77.08
2022-10-25T09:58:13.653Z,76.80
2022-10-25T09:59:14.211Z,76.79
2022-10-25T10:00:15.207Z,76.60
2022-10-25T10:01:14.075Z,76.38
2022-10-25T10:02:14.176Z,76.51
2022-10-25T10:03:13.953Z,76.61
2022-10-25T10:04:14.692Z,76.56
2022-10-25T10:05:14.625Z,76.50
2022-10-25T10:06:14.385Z,76.61
2022-10-25T10:07:13.717Z,76.72
2022-10-25T10:08:14.204Z,76.75
2022-10-25T10:09:14.181Z,76.79
2022-10-25T10:10:14.162Z,76.77
2022-10-25T10:11:13.917Z,76.52
2022-10-25T10:12:15.072Z,76.27
2022-10-25T10:13:13.870Z,76.23
2022-10-25T10:14:15.138Z,76.18
2022-10-25T10:15:14.033Z,76.02
2022-10-25T10:16:13.821Z,75.95
2022-10-25T10:17:14.561Z,76.06
2022-10-25T10:18:14.540Z,76.05
2022-10-25T10:19:14.331Z,76.05
2022-10-25T10:20:14.364Z,75.94
2022-10-25T10:21:14.078Z,75.90
2022-10-25T10:22:13.831Z,75.57
2022-10-25T10:23:14.627Z,75.70
2022-10-25T10:24:15.120Z,75.41
2022-10-25T10:25:13.992Z,75.34
2022-10-25T10:26:13.759Z,75.25
2022-10-25T10:27:14.745Z,75.20
2022-10-25T10:28:14.775Z,75.31
2022-10-25T10:29:17.885Z,75.38
2022-10-25T10:30:14.185Z,75.37
2022-10-25T10:31:14.008Z,75.20
2022-10-25T10:32:13.631Z,75.06
2022-10-25T10:33:14.212Z,74.80
2022-10-25T10:34:13.979Z,74.88
2022-10-25T10:35:14.852Z,74.77
2022-10-25T10:36:14.889Z,74.58
2022-10-25T10:37:14.901Z,74.68
2022-10-25T10:38:14.645Z,74.72
2022-10-25T10:39:14.267Z,74.84
2022-10-25T10:40:14.284Z,74.66
2022-10-25T10:41:14.282Z,74.52
2022-10-25T10:43:14.202Z,74.64
2022-10-25T10:44:13.909Z,74.87
2022-10-25T10:45:15.220Z,74.89
2022-10-25T10:46:13.736Z,74.86
2022-10-25T10:47:14.380Z,74.89
2022-10-25T10:48:14.081Z,75.02
2022-10-25T10:49:13.618Z,74.84
2022-10-25T10:50:14.621Z,74.74
2022-10-25T10:51:44.969Z,74.89
2022-10-25T10:52:14.167Z,74.89
2022-10-25T10:53:13.862Z,75.09
2022-10-25T10:54:14.581Z,75.12
2022-10-25T10:55:14.560Z,75.13
2022-10-25T10:56:14.032Z,75.13
2022-10-25T10:57:13.946Z,75.17
2022-10-25T10:58:14.869Z,75.27
2022-10-25T10:59:14.760Z,75.26
2022-10-25T11:01:15.336Z,75.64
2022-10-25T11:03:13.646Z,76.25
2022-10-25T11:04:14.369Z,76.33
2022-10-25T11:05:14.199Z,76.66
2022-10-25T11:06:14.174Z,76.58
2022-10-25T11:07:13.846Z,76.58
2022-10-25T11:08:13.750Z,76.39
2022-10-25T11:09:15.012Z,76.43
2022-10-25T11:10:13.728Z,76.13
2022-10-25T11:11:14.691Z,76.18
2022-10-25T11:12:14.583Z,75.95
2022-10-25T11:13:14.944Z,75.71
2022-10-25T11:14:14.996Z,75.62
2022-10-25T11:15:14.050Z,75.95
2022-10-25T11:16:15.038Z,75.99
2022-10-25T11:17:13.677Z,75.80
2022-10-25T11:18:14.407Z,75.66
2022-10-25T11:19:14.144Z,76
2022-10-25T11:20:13.961Z,75.92
2022-10-25T11:21:13.490Z,76.09
2022-10-25T11:22:14.165Z,76.36
2022-10-25T11:23:13.839Z,76.06
2022-10-25T11:24:22.999Z,76.05
2022-10-25T11:25:14.062Z,75.97
2022-10-25T11:26:13.856Z,75.69
2022-10-25T11:27:14.684Z,75.61
2022-10-25T11:28:14.581Z,74.75
2022-10-25T11:29:16.071Z,74.27
2022-10-25T11:30:14.507Z,74.19
2022-10-25T11:31:14.128Z,74.08
2022-10-25T11:32:14.015Z,74.11
2022-10-25T11:33:13.699Z,74.38
2022-10-25T11:34:14.865Z,74.67
2022-10-25T11:35:14.782Z,74.70
2022-10-25T11:36:14.134Z,74.54
2022-10-25T11:37:13.683Z,74.38
2022-10-25T11:38:14.591Z,74.19
2022-10-25T11:39:14.208Z,74.35
2022-10-25T11:40:28.376Z,74.57
2022-10-25T11:41:13.865Z,74.68
2022-10-25T11:42:14.163Z,74.62
2022-10-25T11:43:13.624Z,74.42
2022-10-25T11:44:33.157Z,74.16
2022-10-25T11:45:14.235Z,74.07
2022-10-25T11:46:32.849Z,74.06
2022-10-25T11:47:14.777Z,73.85
2022-10-25T11:48:14.536Z,73.94
2022-10-25T11:49:13.923Z,60
2022-10-25T11:50:14.879Z,69.05
2022-10-25T11:51:14.930Z,70.80
2022-10-25T11:53:14.485Z,72.77
2022-10-25T11:54:42.280Z,73.03
2022-10-25T11:55:14.247Z,73.03
2022-10-25T11:56:13.841Z,73.33
2022-10-25T11:57:14.510Z,73.71
2022-10-25T11:58:14.039Z,73.50
2022-10-25T11:59:13.639Z,73.28
2022-10-25T12:00:37.506Z,72.94
2022-10-25T12:01:14.344Z,72.42
2022-10-25T12:02:14.255Z,72.73
2022-10-25T12:03:14.492Z,72.77
2022-10-25T12:04:14.270Z,72.23
2022-10-25T12:05:14.123Z,72.12
2022-10-25T12:06:14.049Z,71.83
2022-10-25T12:07:13.646Z,71.70
2022-10-25T12:08:14.075Z,71.93
2022-10-25T12:09:13.872Z,71.68
2022-10-25T12:10:14.772Z,72.19
2022-10-25T12:11:18.895Z,71.64
2022-10-25T12:12:13.786Z,71.23
2022-10-25T12:13:14.769Z,71.11
2022-10-25T12:14:14.160Z,71.26
2022-10-25T12:15:14.155Z,71.80
2022-10-25T12:16:13.697Z,71.45
2022-10-25T12:17:14.447Z,72.05
2022-10-25T12:18:13.773Z,71.83
2022-10-25T12:19:14.282Z,71.30
2022-10-25T12:20:14.021Z,70.83
2022-10-25T12:21:13.745Z,70.58
2022-10-25T12:22:14.282Z,70.44
2022-10-25T12:23:13.544Z,70.67
2022-10-25T12:24:14.272Z,71.08
2022-10-25T12:25:13.944Z,70.97
2022-10-25T12:26:14.498Z,70.90
2022-10-25T12:27:13.963Z,70.70
2022-10-25T12:28:14.768Z,71.13
2022-10-25T12:29:14.597Z,70.83
2022-10-25T12:30:50.403Z,70.53
2022-10-25T12:31:14.413Z,70.53
2022-10-25T12:32:14.527Z,70.77
2022-10-25T12:33:14.388Z,71.05
2022-10-25T12:34:14.275Z,71.19
2022-10-25T12:35:14.230Z,70.43
2022-10-25T12:36:14.209Z,70.31
2022-10-25T12:37:14.033Z,69.98
2022-10-25T12:38:14.013Z,69.60
2022-10-25T12:39:13.894Z,69.48
2022-10-25T12:40:15.024Z,69.82
2022-10-25T12:41:13.857Z,70.02
2022-10-25T12:42:14.590Z,69.98
2022-10-25T12:43:13.960Z,70.07
2022-10-25T12:44:14.725Z,69.96
2022-10-25T12:45:14.708Z,69.5
2022-10-25T12:46:14.152Z,69.27
2022-10-25T12:47:13.680Z,69.11
2022-10-25T12:48:14.671Z,69.02
2022-10-25T12:49:15.001Z,68.98
2022-10-25T12:50:14.034Z,68.92
2022-10-25T12:51:16.604Z,68.90
2022-10-25T12:52:14.198Z,68.91
2022-10-25T12:53:13.579Z,69.20
2022-10-25T12:54:14.387Z,68.95
2022-10-25T12:55:14.038Z,68.34
2022-10-25T12:56:13.654Z,68.29
2022-10-25T12:57:14.315Z,68.28
2022-10-25T12:58:13.742Z,68.87
2022-10-25T12:59:15.003Z,69.80
2022-10-25T13:00:14.475Z,70.12
2022-10-25T13:01:14.017Z,70.36
2022-10-25T13:02:13.630Z,70.58
2022-10-25T13:03:19.326Z,70.33